Latest Weather Observations for Mandurah

IDW60901

Issued at 9:01 am WST Tuesday 28 February 2017 (issued every 10 minutes, with the page automatically refreshed every 10 minutes)

About weather observations | Map of Perth area stations | Latest observations for Perth area | Other Formats
Station Details ID: 009977 Name: MANDURAH Lat: -32.52 Lon: 115.71 Height: 3.0 m
Data from the previous 72 hours. | See also: Recent months at Mandurah
Date/Time
WST
Temp
°C
App
Temp
°C
Dew
Point
°C
Rel
Hum
%
Delta-T
°C
Wind Press
QNH
hPa
Press
MSL
hPa
Rain since
9am
mm
Dir  Spd
km/h
Gust
km/h
Spd
kts
Gust
kts
28/08:30am 22.3 22.1 14.7 62 4.5 S 9 15 5 8 1015.6 1015.6 0.0
28/08:00am 21.6 21.9 14.5 64 4.2 SSE 6 11 3 6 1015.8 1015.8 0.0
28/07:30am 21.1 20.8 14.3 65 4.0 SE 9 15 5 8 1016.0 1016.0 0.0
28/07:00am 20.6 20.6 14.3 67 3.7 SE 7 13 4 7 1016.0 1016.0 0.0
28/06:30am 20.2 20.1 15.0 72 3.1 SSE 9 13 5 7 1015.8 1015.8 0.0
28/06:00am 20.2 20.0 15.6 75 2.7 SSE 11 15 6 8 1015.6 1015.6 0.0
28/05:30am 20.4 20.3 16.0 76 2.6 SSE 11 15 6 8 1015.5 1015.5 0.0
28/05:00am 20.6 21.3 17.0 80 2.2 SSE 9 15 5 8 1015.1 1015.1 0.0
28/04:30am 20.6 21.3 17.0 80 2.2 SSE 9 17 5 9 1014.9 1014.9 0.0
28/04:00am 20.8 21.0 16.8 78 2.4 SSE 11 17 6 9 1014.9 1014.9 0.0
28/03:30am 21.0 20.5 16.8 77 2.6 SSE 15 22 8 12 1014.7 1014.7 0.0
28/03:00am 21.2 20.7 17.0 77 2.6 SSE 15 22 8 12 1014.8 1014.8 0.0
28/02:30am 21.3 20.8 16.9 76 2.7 SSE 15 24 8 13 1014.7 1014.7 0.0
28/02:00am 21.5 21.2 17.3 77 2.6 SSE 15 24 8 13 1014.8 1014.8 0.0
28/01:30am 21.7 20.6 17.3 76 2.7 SSE 19 26 10 14 1014.9 1014.9 0.0
28/01:00am 21.7 20.5 17.1 75 2.8 SSE 19 32 10 17 1015.1 1015.1 0.0
28/12:30am 21.8 20.7 17.2 75 2.8 SSE 19 28 10 15 1015.5 1015.5 0.0
28/12:00am 22.0 21.0 17.6 76 2.7 S 19 28 10 15 1015.6 1015.6 0.0
 
Date/Time
WST
Temp
°C
App
Temp
°C
Dew
Point
°C
Rel
Hum
%
Delta-T
°C
Wind Press
QNH
hPa
Press
MSL
hPa
Rain since
9am
mm
Dir  Spd
km/h
Gust
km/h
Spd
kts
Gust
kts
27/11:30pm 22.2 21.6 17.6 75 2.8 S 17 26 9 14 1015.7 1015.7 0.0
27/11:00pm 22.2 21.7 17.8 76 2.7 S 17 26 9 14 1015.7 1015.7 0.0
27/10:30pm 22.2 21.3 17.8 76 2.7 S 19 30 10 16 1015.6 1015.6 0.0
27/10:00pm 22.6 22.1 17.7 74 3.0 S 17 28 9 15 1015.6 1015.6 0.0
27/09:30pm 22.7 22.7 18.0 75 2.9 SSW 15 28 8 15 1015.6 1015.6 0.0
27/09:00pm 22.9 22.8 17.8 73 3.2 SSW 15 24 8 13 1015.4 1015.4 0.0
27/08:30pm 22.7 23.3 17.6 73 3.2 SSW 11 17 6 9 1015.2 1015.2 0.0
27/08:00pm 22.8 23.3 17.5 72 3.3 SSW 11 17 6 9 1014.8 1014.8 0.0
27/07:30pm 22.9 23.4 17.4 71 3.4 S 11 17 6 9 1014.6 1014.6 0.0
27/07:00pm 23.0 23.4 17.2 70 3.6 S 11 20 6 11 1014.6 1014.6 0.0
27/06:30pm 23.1 23.3 17.6 71 3.4 SSW 13 22 7 12 1014.6 1014.6 0.0
27/06:00pm 23.3 22.3 16.6 66 4.1 SSW 17 26 9 14 1014.5 1014.5 0.0
27/05:30pm 24.4 23.7 16.4 61 4.9 SSW 15 24 8 13 1014.2 1014.2 0.0
27/05:00pm 24.5 22.9 16.0 59 5.2 SSW 19 30 10 16 1014.1 1014.1 0.0
27/04:30pm 25.1 23.1 15.4 55 5.9 SSW 20 28 11 15 1014.1 1014.1 0.0
27/04:00pm 25.6 24.6 16.7 58 5.5 SW 17 26 9 14 1014.0 1014.0 0.0
27/03:30pm 25.5 22.7 16.4 57 5.6 SW 26 35 14 19 1014.0 1014.0 0.0
27/03:00pm 26.7 25.2 16.3 53 6.4 SW 19 28 10 15 1013.9 1013.9 0.0
27/02:30pm 26.9 25.4 16.2 52 6.6 WSW 19 24 10 13 1013.9 1013.9 0.0
27/02:00pm 26.9 24.7 15.9 51 6.7 SW 22 30 12 16 1014.0 1014.0 0.0
27/01:30pm 27.1 25.6 16.7 53 6.5 WSW 20 28 11 15 1014.2 1014.2 0.0
27/01:00pm 26.7 24.9 16.0 52 6.6 WSW 20 28 11 15 1014.4 1014.4 0.0
27/12:30pm 25.7 23.6 15.1 52 6.4 WSW 20 30 11 16 1014.6 1014.6 0.0
27/12:00pm 25.7 23.6 14.8 51 6.5 WSW 19 24 10 13 1014.8 1014.8 0.0
27/11:30am 25.4 23.9 15.4 54 6.0 W 17 24 9 13 1015.0 1015.0 0.0
27/11:00am 25.3 24.6 14.4 50 6.5 SW 11 22 6 12 1015.3 1015.3 0.0
27/10:30am 24.9 24.8 15.0 54 5.9 WNW 9 15 5 8 1015.4 1015.4 0.0
27/10:00am 24.8 25.7 14.0 51 6.4 S 2 6 1 3 1015.5 1015.5 0.0
27/09:30am 22.8 23.0 13.0 54 5.6 S 4 7 2 4 1015.5 1015.5 0.0
27/09:00am 22.6 22.3 13.4 56 5.3 SE 7 11 4 6 1015.4 1015.4 0.0
27/08:30am 21.4 21.3 13.8 62 4.4 ESE 7 11 4 6 1015.5 1015.5 0.0
27/08:00am 20.2 20.1 13.2 64 4.0 SSE 6 11 3 6 1015.4 1015.4 0.0
27/07:30am 19.5 19.1 14.1 71 3.1 SSE 9 13 5 7 1015.1 1015.1 0.0
27/07:00am 19.1 18.3 14.1 73 2.9 SSE 11 15 6 8 1014.9 1014.9 0.0
27/06:30am 19.1 18.5 14.6 75 2.6 SE 11 15 6 8 1014.6 1014.6 0.0
27/06:00am 19.3 19.1 14.6 74 2.7 SSE 9 15 5 8 1014.2 1014.2 0.0
27/05:30am 19.5 19.4 15.0 75 2.6 SSE 9 15 5 8 1013.9 1013.9 0.0
27/05:00am 19.6 19.6 15.3 76 2.5 SSE 9 13 5 7 1013.7 1013.7 0.0
27/04:30am 20.0 20.4 15.4 75 2.7 SSE 7 13 4 7 1013.5 1013.5 0.0
27/04:00am 20.2 19.9 15.4 74 2.8 SSE 11 17 6 9 1013.3 1013.3 0.0
27/03:30am 20.4 20.5 15.4 73 3.0 SSE 9 15 5 8 1013.2 1013.2 0.0
27/03:00am 20.6 20.7 15.6 73 3.0 S 9 17 5 9 1013.3 1013.3 0.0
27/02:30am 20.8 20.6 15.6 72 3.1 S 11 15 6 8 1013.4 1013.4 0.0
27/02:00am 20.8 21.0 15.8 73 3.0 S 9 13 5 7 1013.6 1013.6 0.0
27/01:30am 21.1 21.7 15.9 72 3.1 S 7 13 4 7 1013.6 1013.6 0.0
27/01:00am 21.1 21.0 15.9 72 3.1 S 11 17 6 9 1013.6 1013.6 0.0
27/12:30am 21.2 21.1 16.0 72 3.1 SSE 11 15 6 8 1013.6 1013.6 0.0
27/12:00am 21.3 21.2 16.0 72 3.2 S 11 19 6 10 1013.6 1013.6 0.0
 
Date/Time
WST
Temp
°C
App
Temp
°C
Dew
Point
°C
Rel
Hum
%
Delta-T
°C
Wind Press
QNH
hPa
Press
MSL
hPa
Rain since
9am
mm
Dir  Spd
km/h
Gust
km/h
Spd
kts
Gust
kts
26/11:30pm 21.7 21.5 15.8 69 3.5 S 11 17 6 9 1013.5 1013.5 0.0
26/11:00pm 21.9 20.9 15.5 67 3.8 S 15 22 8 12 1013.5 1013.5 0.0
26/10:30pm 22.1 21.2 15.9 68 3.7 S 15 22 8 12 1013.7 1013.7 0.0
26/10:00pm 22.0 21.8 16.7 72 3.2 S 13 19 7 10 1013.9 1013.9 0.0
26/09:30pm 21.6 21.5 17.0 75 2.8 S 13 20 7 11 1014.0 1014.0 0.0
26/09:00pm 21.4 21.3 17.0 76 2.7 SSW 13 20 7 11 1013.9 1013.9 0.0
26/08:30pm 21.5 21.5 17.1 76 2.7 SSW 13 22 7 12 1013.7 1013.7 0.0
26/08:00pm 21.4 21.2 16.6 74 2.9 SSW 13 20 7 11 1013.6 1013.6 0.0
26/07:30pm 21.7 21.7 16.2 71 3.3 SSW 11 19 6 10 1013.6 1013.6 0.0
26/07:00pm 22.1 21.3 16.1 69 3.6 SSW 15 24 8 13 1013.3 1013.3 0.0
26/06:30pm 22.6 22.2 16.2 67 3.9 SSW 13 19 7 10 1013.4 1013.4 0.0
26/06:00pm 22.7 21.4 15.8 65 4.2 SSW 17 26 9 14 1013.1 1013.1 0.0
26/05:30pm 23.1 21.5 15.9 64 4.3 SSW 19 30 10 16 1012.7 1012.7 0.0
26/05:00pm 24.4 23.8 16.6 61 4.8 SW 15 26 8 14 1012.5 1012.5 0.0
26/04:30pm 24.1 22.5 16.1 61 4.9 SSW 19 28 10 15 1012.1 1012.1 0.0
26/04:00pm 25.2 24.6 16.6 59 5.3 SSW 15 22 8 12 1011.8 1011.8 0.0
26/03:30pm 24.4 22.3 17.1 63 4.5 SW 24 33 13 18 1011.7 1011.7 0.0
26/03:00pm 24.6 22.0 16.8 62 4.8 SW 26 37 14 20 1012.0 1012.0 0.0
26/02:30pm 25.7 24.1 16.5 56 5.7 SW 20 32 11 17 1011.8 1011.8 0.0
26/02:00pm 25.0 22.1 16.2 58 5.4 WSW 26 35 14 19 1011.8 1011.8 0.0
26/01:30pm 25.8 23.5 15.8 54 6.1 WSW 22 30 12 16 1012.0 1012.0 0.0
26/01:00pm 26.2 24.6 16.4 54 6.0 WSW 20 30 11 16 1011.9 1011.9 0.0
26/12:30pm 26.4 24.3 16.1 53 6.3 WSW 22 30 12 16 1011.8 1011.8 0.0
26/12:00pm 25.5 23.0 16.1 56 5.8 WSW 24 35 13 19 1012.0 1012.0 0.0
26/11:30am 25.4 23.0 16.5 58 5.5 WSW 24 35 13 19 1011.9 1011.9 0.0
26/11:00am 26.7 27.0 16.9 55 6.1 SW 11 28 6 15 1011.9 1011.9 0.0
26/10:30am 25.3 25.4 15.6 55 5.9 SSE 9 13 5 7 1012.1 1012.1 0.0
26/10:00am 23.4 22.4 15.5 61 4.7 SSE 15 22 8 12 1011.8 1011.8 0.0
26/09:30am 22.5 20.8 15.8 66 4.0 SSE 19 33 10 18 1011.9 1011.9 0.0
26/09:00am 21.9 21.1 16.0 69 3.6 S 15 24 8 13 1012.1 1012.1 0.0
26/08:30am 21.9 21.1 16.2 70 3.4 SSW 15 24 8 13 1012.1 1012.1 0.0
26/08:00am 21.5 21.7 16.7 74 2.9 SSW 11 19 6 10 1011.7 1011.7 0.0
26/07:30am 20.5 20.2 16.5 78 2.4 SSW 13 20 7 11 1011.5 1011.5 0.0
26/07:00am 19.7 18.5 16.2 80 2.1 S 17 26 9 14 1010.6 1010.6 0.0
26/06:30am 19.7 18.7 16.7 83 1.8 SSE 17 26 9 14 1010.3 1010.3 0.0
26/06:00am 20.0 19.1 16.8 82 1.9 SSE 17 24 9 13 1010.4 1010.4 0.0
26/05:30am 19.8 19.6 16.8 83 1.8 S 13 19 7 10 1010.5 1010.5 0.0
26/05:00am 19.5 18.5 16.5 83 1.8 S 17 24 9 13 1010.4 1010.4 0.0
26/04:30am 20.1 19.1 16.7 81 2.1 SSE 17 24 9 13 1010.4 1010.4 0.0
26/04:00am 20.6 21.2 17.6 83 1.8 SSE 11 17 6 9 1010.7 1010.7 0.0
26/03:30am 20.6 21.2 17.6 83 1.8 S 11 15 6 8 1010.9 1010.9 0.0
26/03:00am 20.8 21.0 17.6 82 2.0 SSE 13 17 7 9 1010.9 1010.9 0.0
26/02:30am 20.8 20.7 17.8 83 1.9 S 15 20 8 11 1010.8 1010.8 0.0
26/02:00am 20.9 21.3 18.1 84 1.7 S 13 19 7 10 1011.0 1011.0 0.0
26/01:30am 21.0 21.0 18.2 84 1.7 S 15 20 8 11 1011.0 1011.0 0.0
26/01:00am 21.3 21.1 18.5 84 1.8 S 17 26 9 14 1011.2 1011.2 0.0
26/12:30am 21.5 20.9 18.5 83 1.9 S 19 28 10 15 1011.1 1011.1 0.0
26/12:00am 22.0 22.3 18.8 82 2.0 S 15 28 8 15 1011.3 1011.3 0.0
 
Date/Time
WST
Temp
°C
App
Temp
°C
Dew
Point
°C
Rel
Hum
%
Delta-T
°C
Wind Press
QNH
hPa
Press
MSL
hPa
Rain since
9am
mm
Dir  Spd
km/h
Gust
km/h
Spd
kts
Gust
kts
25/11:30pm 22.4 22.7 18.8 80 2.3 SSW 15 24 8 13 1011.4 1011.4 0.0
25/11:00pm 22.6 23.1 17.5 73 3.2 SSW 11 17 6 9 1011.6 1011.6 0.0
25/10:30pm 23.5 24.5 16.8 66 4.1 S 7 11 4 6 1011.8 1011.8 0.0
25/10:00pm 23.8 24.0 15.8 61 4.8 SSW 9 15 5 8 1011.8 1011.8 0.0
25/09:30pm 24.8 24.8 14.3 52 6.2 S 7 15 4 8 1011.8 1011.8 0.0
25/09:00pm 25.6 25.0 14.7 51 6.5 SSW 11 17 6 9 1011.6 1011.6 0.0
25/08:30pm 26.6 25.6 14.7 48 7.1 S 13 19 7 10 1011.6 1011.6 0.0
25/08:00pm 27.3 26.4 13.6 43 8.1 S 11 19 6 10 1011.4 1011.4 0.0
25/07:30pm 28.0 26.9 13.1 39 8.8 S 11 17 6 9 1011.1 1011.1 0.0
25/07:00pm 28.6 28.1 13.7 40 8.9 S 9 15 5 8 1011.0 1011.0 0.0
25/06:30pm 29.6 28.0 11.6 33 10.4 S 11 19 6 10 1011.0 1011.0 0.0
25/06:00pm 30.4 28.9 11.9 32 10.8 SW 11 17 6 9 1010.9 1010.9 0.0
25/05:30pm 30.9 28.1 11.3 30 11.4 SW 17 24 9 13 1010.8 1010.8 0.0
25/05:00pm 31.5 29.4 11.3 29 11.7 SW 13 19 7 10 1011.1 1011.1 0.0
25/04:30pm 31.7 29.3 11.5 29 11.8 SW 15 20 8 11 1011.4 1011.4 0.0
25/04:00pm 30.0 27.1 12.9 35 10.1 SW 20 30 11 16 1011.6 1011.6 0.0
25/03:30pm 30.6 28.2 14.3 37 9.9 SW 20 28 11 15 1011.8 1011.8 0.0
25/03:00pm 31.7 30.3 15.6 37 10.0 WSW 17 22 9 12 1012.0 1012.0 0.0
25/02:30pm 33.3 32.0 14.8 32 11.4 WSW 15 20 8 11 1012.3 1012.3 0.0
25/02:00pm 32.6 31.1 16.4 37 10.2 WSW 19 24 10 13 1012.8 1012.8 0.0
25/01:30pm 33.3 32.1 13.9 31 11.8 WNW 13 15 7 8 1013.2 1013.2 0.0
25/01:00pm 33.4 32.2 12.9 28 12.3 WNW 11 13 6 7 1013.5 1013.5 0.0
25/12:30pm 32.3 32.3 16.2 38 10.1 WNW 11 13 6 7 1013.7 1013.7 0.0
25/12:00pm 30.7 31.1 16.3 42 9.0 NW 9 11 5 6 1014.0 1014.0 0.0
25/11:30am 31.9 31.5 16.2 38 9.8 N 13 17 7 9 1014.4 1014.4 0.0
25/11:00am 31.0 30.2 15.0 38 9.8 NNE 13 19 7 10 1014.7 1014.7 0.0
25/10:30am 30.3 28.9 14.4 38 9.6 NNE 15 19 8 10 1015.0 1015.0 0.0
25/10:00am 29.5 27.8 13.7 38 9.4 NNE 15 22 8 12 1015.3 1015.3 0.0
25/09:30am 28.8 26.0 13.1 38 9.3 NNE 20 28 11 15 1015.4 1015.4 0.0

Latest Capital City Observations: Canberra | Sydney | Melbourne | Brisbane | Adelaide | Perth | Hobart | Darwin

Other Formats:

Comma delimited format used in spreadsheet applications
http://www.bom.gov.au/fwo/IDW60901/IDW60901.94605.axf

JavaScript Object Notation format (JSON) in row-major order
http://www.bom.gov.au/fwo/IDW60901/IDW60901.94605.json